createdAt,value
2023-01-26T00:01:21.911Z,36.03
2023-01-26T00:03:49.439Z,37.70
2023-01-26T00:06:19.385Z,37.60
2023-01-26T00:08:48.417Z,38.40
2023-01-26T00:11:17.779Z,32.77
2023-01-26T00:13:44.357Z,40.07
2023-01-26T00:16:13.678Z,44.43
2023-01-26T00:18:41.678Z,39.37
2023-01-26T00:21:11.816Z,40.23
2023-01-26T00:23:38.489Z,43.40
2023-01-26T00:26:10.494Z,38.73
2023-01-26T00:28:37.030Z,41.27
2023-01-26T00:31:24.758Z,38.33
2023-01-26T00:33:53.554Z,37.27
2023-01-26T00:36:20.235Z,36.43
2023-01-26T00:38:47.130Z,42.20
2023-01-26T00:41:32.781Z,40.20
2023-01-26T00:43:59.615Z,44.37
2023-01-26T00:46:26.282Z,45.87
2023-01-26T00:48:52.829Z,44.13
2023-01-26T00:51:19.404Z,43.73
2023-01-26T00:53:46.167Z,43.60
2023-01-26T00:56:14.693Z,43.77
2023-01-26T00:58:41.237Z,41.67
2023-01-26T01:01:08.656Z,46.93
2023-01-26T01:03:35.310Z,42.37
2023-01-26T01:06:01.937Z,45.13
2023-01-26T01:08:28.468Z,44.80
2023-01-26T01:11:09.688Z,43.10
2023-01-26T01:13:36.319Z,44.30
2023-01-26T01:16:11.498Z,42.70
2023-01-26T01:18:39.028Z,42.47
2023-01-26T01:21:13.167Z,46.70
2023-01-26T01:23:40.458Z,47.33
2023-01-26T01:26:07.993Z,40.30
2023-01-26T01:28:36.035Z,45.63
2023-01-26T01:31:09.592Z,40.73
2023-01-26T01:33:36.360Z,40.60
2023-01-26T01:36:08.616Z,35.20
2023-01-26T01:38:35.222Z,33.80
2023-01-26T01:41:01.875Z,40.93
2023-01-26T01:43:29.207Z,40.80
2023-01-26T01:45:56.603Z,36.53
2023-01-26T01:48:30.724Z,36.53
2023-01-26T01:51:05.767Z,33.45
2023-01-26T01:53:35.864Z,32.47
2023-01-26T01:56:07.465Z,34.13
2023-01-26T01:58:38.507Z,35.07
2023-01-26T02:01:05.085Z,36.73
2023-01-26T02:03:33.874Z,39.60
2023-01-26T02:06:28.943Z,37.50
2023-01-26T02:08:58.405Z,35.95
2023-01-26T02:11:40.202Z,37.73
2023-01-26T02:14:10.391Z,39.17
2023-01-26T02:16:39.945Z,37.67
2023-01-26T02:19:18.114Z,42.13
2023-01-26T02:21:47.733Z,40.23
2023-01-26T02:24:34.801Z,40.57
2023-01-26T02:27:02.212Z,39.43
2023-01-26T02:29:29.377Z,38.13
2023-01-26T02:31:56.177Z,35.00
2023-01-26T02:34:25.142Z,37.67
2023-01-26T02:36:59.995Z,41.73
2023-01-26T02:39:45.876Z,38.30
2023-01-26T02:42:31.167Z,35.70
2023-01-26T02:44:58.063Z,37.23
2023-01-26T02:47:24.567Z,36.30
2023-01-26T02:49:51.161Z,34.87
2023-01-26T02:52:20.695Z,35.33
2023-01-26T02:55:05.392Z,36.13
2023-01-26T02:57:34.434Z,35.17
2023-01-26T03:00:02.185Z,37.23
2023-01-26T03:02:28.908Z,32.83
2023-01-26T03:04:55.382Z,42.47
2023-01-26T03:07:21.889Z,35.80
2023-01-26T03:09:48.428Z,35.80
2023-01-26T03:12:15.024Z,37.63
2023-01-26T03:14:41.620Z,37.83
2023-01-26T03:17:08.185Z,37.23
2023-01-26T03:19:53.083Z,32.90
2023-01-26T03:22:37.957Z,37.05
2023-01-26T03:25:23.272Z,37.30
2023-01-26T03:27:50.020Z,33.70
2023-01-26T03:30:19.022Z,33.67
2023-01-26T03:32:45.746Z,35.97
2023-01-26T03:35:15.169Z,34.93
2023-01-26T03:37:46.996Z,35.73
2023-01-26T03:40:34.549Z,34.10
2023-01-26T03:43:26.412Z,30.30
2023-01-26T03:46:11.849Z,30.23
2023-01-26T03:48:57.393Z,36.73
2023-01-26T03:51:42.441Z,32.83
2023-01-26T03:56:53.931Z,28.33
2023-01-26T03:59:38.251Z,30.03
2023-01-26T04:02:29.160Z,31.83
2023-01-26T04:05:14.570Z,34.43
2023-01-26T04:07:59.815Z,32.67
2023-01-26T04:10:27.304Z,32.30
2023-01-26T04:13:12.048Z,33.83
2023-01-26T04:15:57.402Z,31.30
2023-01-26T04:18:42.296Z,38.93
2023-01-26T04:21:26.773Z,29.55
2023-01-26T04:23:56.566Z,31.45
2023-01-26T04:26:34.779Z,35.40
2023-01-26T04:29:03.138Z,37.47
2023-01-26T04:31:29.794Z,33.67
2023-01-26T04:33:56.774Z,35.03
2023-01-26T04:36:23.230Z,40.87
2023-01-26T04:38:50.625Z,35.97
2023-01-26T04:41:17.718Z,36.70
2023-01-26T04:43:44.300Z,31.97
2023-01-26T04:46:11.245Z,42.87
2023-01-26T04:48:38.452Z,37.97
2023-01-26T04:51:08.326Z,41.10
2023-01-26T04:53:35.017Z,40.17
2023-01-26T04:56:01.769Z,44.97
2023-01-26T04:58:28.382Z,38.77
2023-01-26T05:00:58.333Z,41.00
2023-01-26T05:03:26.391Z,45.90
2023-01-26T05:05:54.241Z,43.97
2023-01-26T05:08:23.630Z,42.27
2023-01-26T05:10:51.812Z,37.33
2023-01-26T05:13:18.570Z,36.40
2023-01-26T05:15:45.114Z,32.77
2023-01-26T05:18:11.731Z,30.23
2023-01-26T05:20:38.506Z,32.10
2023-01-26T05:23:05.167Z,32.57
2023-01-26T05:25:31.789Z,28.70
2023-01-26T05:27:58.407Z,26.50
2023-01-26T05:30:24.930Z,27.27
2023-01-26T05:32:51.526Z,24.80
2023-01-26T05:35:18.142Z,25.07
2023-01-26T05:37:45.785Z,19.63
2023-01-26T05:40:13.491Z,22.27
2023-01-26T05:42:42.272Z,21.20
2023-01-26T05:45:09.683Z,25.43
2023-01-26T05:47:36.627Z,24.93
2023-01-26T05:50:04.497Z,28.83
2023-01-26T05:52:31.192Z,30.20
2023-01-26T05:54:58.272Z,31.33
2023-01-26T05:57:24.969Z,31.90
2023-01-26T05:59:51.553Z,33.83
2023-01-26T06:02:18.103Z,28.67
2023-01-26T06:04:44.674Z,33.37
2023-01-26T06:07:13.696Z,33.80
2023-01-26T06:09:41.602Z,33.63
2023-01-26T06:12:15.534Z,40.40
2023-01-26T06:14:42.487Z,45.58
2023-01-26T06:17:09.241Z,32.33
2023-01-26T06:19:36.175Z,33.33
2023-01-26T06:22:03.028Z,39.10
2023-01-26T06:24:30.153Z,47.67
2023-01-26T06:26:56.787Z,42.27
2023-01-26T06:29:23.279Z,43.27
2023-01-26T06:31:49.815Z,45.33
2023-01-26T06:34:16.498Z,38.10
2023-01-26T06:36:43.744Z,38.53
2023-01-26T06:39:12.063Z,42.80
2023-01-26T06:41:39.224Z,40.93
2023-01-26T06:44:06.226Z,38.23
2023-01-26T06:46:32.698Z,37.93
2023-01-26T06:49:02.202Z,25.60
2023-01-26T06:51:52.284Z,35.13
2023-01-26T06:54:18.805Z,30.63
2023-01-26T06:56:45.838Z,27.73
2023-01-26T06:59:12.728Z,32.43
2023-01-26T07:01:44.478Z,31.23
2023-01-26T07:04:11.312Z,31.43
2023-01-26T07:06:37.945Z,38.77
2023-01-26T07:09:05.120Z,32.63
2023-01-26T07:11:32.784Z,30.83
2023-01-26T07:13:59.922Z,31.90
2023-01-26T07:16:26.732Z,34.53
2023-01-26T07:18:57.104Z,33.87
2023-01-26T07:21:23.760Z,34.50
2023-01-26T07:23:52.455Z,32.77
2023-01-26T07:26:19.330Z,33.73
2023-01-26T07:28:46.309Z,31.87
2023-01-26T07:31:13.390Z,29.87
2023-01-26T07:33:40.077Z,37.03
2023-01-26T07:36:07.092Z,34.53
2023-01-26T07:38:34.507Z,35.53
2023-01-26T07:41:06.246Z,42.27
2023-01-26T07:43:34.402Z,47.37
2023-01-26T07:46:00.964Z,37.47
2023-01-26T07:48:29.840Z,40.33
2023-01-26T07:51:00.416Z,38.73
2023-01-26T07:53:29.343Z,35.77
2023-01-26T07:56:06.567Z,36.00
2023-01-26T07:58:33.151Z,41.40
2023-01-26T08:01:12.047Z,37.93
2023-01-26T08:03:39.218Z,37.10
2023-01-26T08:06:07.267Z,33.80
2023-01-26T08:08:34.798Z,36.60
2023-01-26T08:11:02.841Z,30.47
2023-01-26T08:13:35.857Z,31.27
2023-01-26T08:16:10.752Z,37.43
2023-01-26T08:18:43.922Z,35.58
2023-01-26T08:21:12.091Z,27.93
2023-01-26T08:23:38.701Z,31.73
2023-01-26T08:26:08.466Z,32.07
2023-01-26T08:28:35.925Z,33.53
2023-01-26T08:31:19.765Z,32.00
2023-01-26T08:33:49.102Z,27.23
2023-01-26T08:36:15.930Z,30.40
2023-01-26T08:38:43.574Z,30.63
2023-01-26T08:41:10.547Z,30.77
2023-01-26T08:43:37.755Z,36.53
2023-01-26T08:46:05.095Z,27.53
2023-01-26T08:48:31.972Z,32.67
2023-01-26T08:51:01.152Z,32.77
2023-01-26T08:53:31.068Z,25.90
2023-01-26T08:55:57.569Z,32.93
2023-01-26T08:58:24.095Z,29.77
2023-01-26T09:00:50.948Z,31.63
2023-01-26T09:03:17.734Z,29.67
2023-01-26T09:05:44.261Z,33.23
2023-01-26T09:08:10.854Z,33.20
2023-01-26T09:10:38.949Z,34.73
2023-01-26T09:13:06.482Z,29.43
2023-01-26T09:15:33.151Z,30.63
2023-01-26T09:18:01.069Z,31.03
2023-01-26T09:20:27.941Z,29.13
2023-01-26T09:22:54.802Z,30.13
2023-01-26T09:25:21.988Z,26.57
2023-01-26T09:27:48.668Z,29.63
2023-01-26T09:30:15.878Z,25.60
2023-01-26T09:32:42.438Z,25.03
2023-01-26T09:35:14.105Z,27.77
2023-01-26T09:37:42.866Z,28.80
2023-01-26T09:40:18.101Z,25.13
2023-01-26T09:43:06.512Z,25.60
2023-01-26T09:45:46.489Z,20.83
2023-01-26T09:48:22.478Z,25.37
2023-01-26T09:51:01.474Z,23.87
2023-01-26T09:53:51.531Z,26.30
2023-01-26T09:56:20.250Z,23.50
2023-01-26T09:58:55.277Z,22.03
2023-01-26T10:01:30.019Z,19.97
2023-01-26T10:06:32.177Z,22.93
2023-01-26T10:09:14.547Z,21.60
2023-01-26T10:11:46.107Z,16.87
2023-01-26T10:14:35.881Z,22.67
2023-01-26T10:17:06.063Z,22.27
2023-01-26T10:19:55.095Z,18.37
2023-01-26T10:22:44.636Z,20.53
2023-01-26T10:25:28.182Z,19.47
2023-01-26T10:27:55.065Z,20.23
2023-01-26T10:30:22.029Z,20.57
2023-01-26T10:32:53.410Z,20.53
2023-01-26T10:35:23.311Z,17.97
2023-01-26T10:37:52.940Z,19.37
2023-01-26T10:40:20.634Z,20.57
2023-01-26T10:42:59.000Z,22.67
2023-01-26T10:45:29.601Z,21.13
2023-01-26T10:48:27.222Z,22.07
2023-01-26T10:50:55.547Z,18.63
2023-01-26T10:53:31.109Z,16.90
2023-01-26T10:56:15.955Z,17.50
2023-01-26T10:58:47.543Z,19.58
2023-01-26T11:01:16.545Z,15.83
2023-01-26T11:03:56.746Z,15.40
2023-01-26T11:06:28.972Z,17.27
2023-01-26T11:09:11.053Z,19.60
2023-01-26T11:11:38.025Z,16.25
2023-01-26T11:14:19.454Z,13.53
2023-01-26T11:16:57.768Z,13.40
2023-01-26T11:19:42.495Z,13.00
2023-01-26T11:22:17.613Z,13.63
2023-01-26T11:25:06.729Z,18.30
2023-01-26T11:27:39.299Z,15.20
2023-01-26T11:30:28.796Z,15.13
2023-01-26T11:33:01.237Z,17.13
2023-01-26T11:35:39.880Z,17.17
2023-01-26T11:38:22.457Z,16.20
2023-01-26T11:40:59.436Z,17.40
2023-01-26T11:43:32.730Z,16.93
2023-01-26T11:46:25.029Z,19.00
2023-01-26T11:49:16.206Z,17.53
2023-01-26T11:51:59.351Z,13.63
2023-01-26T11:54:48.224Z,15.07
2023-01-26T11:57:23.508Z,12.67
2023-01-26T11:59:58.957Z,12.80
2023-01-26T12:02:38.421Z,12.80
2023-01-26T12:05:22.437Z,13.00
2023-01-26T12:08:16.219Z,13.13
2023-01-26T12:10:56.948Z,13.52
2023-01-26T12:13:43.754Z,10.10
2023-01-26T12:16:43.767Z,10.40
2023-01-26T12:19:21.888Z,10.20
2023-01-26T12:21:50.112Z,11.93
2023-01-26T12:25:01.111Z,11.23
2023-01-26T12:27:40.754Z,11.77
2023-01-26T12:30:42.621Z,10.90
2023-01-26T12:33:11.090Z,9.68
2023-01-26T12:35:44.484Z,12.55
2023-01-26T12:38:25.041Z,13.93
2023-01-26T12:41:09.680Z,8.80
2023-01-26T12:44:10.688Z,9.50
2023-01-26T12:46:43.994Z,9.15
2023-01-26T12:49:25.920Z,12.88
2023-01-26T12:52:07.692Z,12.40
2023-01-26T12:55:01.540Z,8.65
2023-01-26T12:57:44.903Z,8.98
2023-01-26T13:00:19.205Z,10.45
2023-01-26T13:02:49.196Z,9.38
2023-01-26T13:05:35.900Z,10.45
2023-01-26T13:08:31.203Z,11.05
2023-01-26T13:10:59.493Z,11.95
2023-01-26T13:13:30.473Z,12.05
2023-01-26T13:16:15.358Z,9.60
2023-01-26T13:18:53.376Z,7.68
2023-01-26T13:21:42.196Z,7.63
2023-01-26T13:24:17.994Z,11.48
2023-01-26T13:27:08.385Z,11.43
2023-01-26T13:29:36.171Z,11.35
2023-01-26T13:32:09.343Z,11.90
2023-01-26T13:34:41.201Z,9.45
2023-01-26T13:37:31.283Z,9.48
2023-01-26T13:40:06.260Z,10.60
2023-01-26T13:45:23.984Z,11.90
2023-01-26T13:47:53.271Z,9.80
2023-01-26T13:50:28.715Z,10.00
2023-01-26T13:52:55.463Z,12.90
2023-01-26T13:55:29.521Z,8.40
2023-01-26T13:58:18.150Z,9.50
2023-01-26T14:01:02.801Z,8.50
2023-01-26T14:03:31.135Z,10.45
2023-01-26T14:06:22.652Z,11.65
2023-01-26T14:08:55.511Z,6.78
2023-01-26T14:11:25.171Z,13.95
2023-01-26T14:13:56.175Z,10.27
2023-01-26T14:16:30.659Z,11.25
2023-01-26T14:19:16.639Z,9.55
2023-01-26T14:21:52.726Z,10.73
2023-01-26T14:24:26.980Z,8.73
2023-01-26T14:26:53.778Z,9.32
2023-01-26T14:29:26.383Z,7.40
2023-01-26T14:31:54.623Z,8.15
2023-01-26T14:34:23.480Z,8.63
2023-01-26T14:37:22.938Z,8.40
2023-01-26T14:39:49.480Z,10.63
2023-01-26T14:42:19.203Z,11.40
2023-01-26T14:44:46.471Z,10.88
2023-01-26T14:47:21.973Z,9.13
2023-01-26T14:49:59.821Z,11.80
2023-01-26T14:52:30.035Z,14.52
2023-01-26T14:54:59.030Z,9.37
2023-01-26T14:57:28.207Z,8.13
2023-01-26T14:59:58.559Z,9.43
2023-01-26T15:02:42.716Z,11.65
2023-01-26T15:05:14.468Z,10.57
2023-01-26T15:07:40.909Z,6.88
2023-01-26T15:10:36.970Z,7.22
2023-01-26T15:13:20.151Z,9.02
2023-01-26T15:15:49.361Z,6.32
2023-01-26T15:18:20.808Z,5.93
2023-01-26T15:21:00.285Z,5.60
2023-01-26T15:23:28.659Z,8.07
2023-01-26T15:25:56.265Z,9.02
2023-01-26T15:28:25.979Z,9.38
2023-01-26T15:30:55.713Z,10.27
2023-01-26T15:33:44.582Z,8.98
2023-01-26T15:36:24.269Z,11.52
2023-01-26T15:38:56.277Z,9.67
2023-01-26T15:41:22.785Z,9.00
2023-01-26T15:43:49.264Z,12.48
2023-01-26T15:46:15.805Z,14.88
2023-01-26T15:48:42.501Z,9.75
2023-01-26T15:51:17.784Z,10.43
2023-01-26T15:53:44.332Z,12.45
2023-01-26T15:56:16.175Z,9.38
2023-01-26T15:58:43.356Z,12.82
2023-01-26T16:01:21.831Z,11.40
2023-01-26T16:03:51.397Z,11.10
2023-01-26T16:06:30.894Z,8.75
2023-01-26T16:08:58.041Z,10.05
2023-01-26T16:11:37.625Z,8.65
2023-01-26T16:14:04.641Z,9.40
2023-01-26T16:16:32.849Z,9.13
2023-01-26T16:18:59.492Z,11.82
2023-01-26T16:21:33.270Z,12.55
2023-01-26T16:24:01.438Z,9.87
2023-01-26T16:26:28.639Z,10.57
2023-01-26T16:28:55.416Z,12.10
2023-01-26T16:31:25.480Z,11.57
2023-01-26T16:33:52.197Z,9.52
2023-01-26T16:36:19.965Z,9.68
2023-01-26T16:38:47.329Z,8.93
2023-01-26T16:41:24.689Z,9.27
2023-01-26T16:43:51.340Z,10.83
2023-01-26T16:46:17.983Z,8.63
2023-01-26T16:48:44.499Z,11.83
2023-01-26T16:51:18.639Z,12.68
2023-01-26T16:53:45.416Z,10.15
2023-01-26T16:56:13.656Z,12.33
2023-01-26T16:58:40.979Z,11.67
2023-01-26T17:01:16.277Z,16.17
2023-01-26T17:03:42.824Z,12.87
2023-01-26T17:06:10.151Z,13.27
2023-01-26T17:08:36.739Z,15.00
2023-01-26T17:11:03.275Z,12.97
2023-01-26T17:13:31.413Z,12.60
2023-01-26T17:15:58.478Z,12.70
2023-01-26T17:18:25.628Z,15.57
2023-01-26T17:20:52.114Z,13.53
2023-01-26T17:23:18.705Z,15.20
2023-01-26T17:25:45.234Z,16.77
2023-01-26T17:28:12.242Z,14.60
2023-01-26T17:30:38.744Z,14.23
2023-01-26T17:33:05.263Z,12.83
2023-01-26T17:35:31.729Z,12.80
2023-01-26T17:37:58.262Z,12.87
2023-01-26T17:40:24.816Z,13.93
2023-01-26T17:42:51.379Z,14.87
2023-01-26T17:45:17.936Z,15.37
2023-01-26T17:47:44.547Z,16.57
2023-01-26T17:50:11.294Z,15.27
2023-01-26T17:52:37.783Z,12.30
2023-01-26T17:55:06.268Z,14.53
2023-01-26T17:57:33.635Z,19.23
2023-01-26T18:00:00.144Z,15.73
2023-01-26T18:02:26.735Z,15.73
2023-01-26T18:04:53.417Z,17.40
2023-01-26T18:07:19.904Z,16.70
2023-01-26T18:09:46.653Z,16.17
2023-01-26T18:12:13.239Z,17.97
2023-01-26T18:14:39.925Z,22.37
2023-01-26T18:17:06.511Z,20.80
2023-01-26T18:19:33.089Z,16.67
2023-01-26T18:21:59.667Z,25.43
2023-01-26T18:24:26.623Z,17.27
2023-01-26T18:26:53.466Z,18.90
2023-01-26T18:29:20.035Z,16.83
2023-01-26T18:31:48.125Z,18.77
2023-01-26T18:34:16.370Z,15.43
2023-01-26T18:36:42.922Z,15.47
2023-01-26T18:39:13.611Z,25.33
2023-01-26T18:41:40.855Z,19.67
2023-01-26T18:44:08.300Z,22.03
2023-01-26T18:46:34.809Z,21.40
2023-01-26T18:49:02.963Z,15.00
2023-01-26T18:51:31.824Z,15.43
2023-01-26T18:53:58.665Z,18.93
2023-01-26T18:56:25.852Z,18.63
2023-01-26T18:58:54.274Z,20.87
2023-01-26T19:01:21.711Z,16.07
2023-01-26T19:03:54.103Z,26.43
2023-01-26T19:06:21.955Z,14.03
2023-01-26T19:09:00.947Z,17.57
2023-01-26T19:11:31.139Z,17.17
2023-01-26T19:13:58.320Z,16.10
2023-01-26T19:16:25.708Z,13.23
2023-01-26T19:18:54.151Z,16.60
2023-01-26T19:21:24.096Z,20.10
2023-01-26T19:23:52.846Z,13.47
2023-01-26T19:26:22.279Z,14.17
2023-01-26T19:28:50.999Z,14.27
2023-01-26T19:31:19.806Z,13.70
2023-01-26T19:34:01.086Z,21.17
2023-01-26T19:36:29.551Z,14.60
2023-01-26T19:38:56.791Z,12.27
2023-01-26T19:41:23.966Z,12.40
2023-01-26T19:43:50.978Z,13.07
2023-01-26T19:46:19.392Z,12.07
2023-01-26T19:48:46.339Z,11.50
2023-01-26T19:51:12.870Z,13.60
2023-01-26T19:53:41.534Z,15.70
2023-01-26T19:56:17.579Z,13.17
2023-01-26T19:58:49.607Z,13.73
2023-01-26T20:01:16.663Z,13.63
2023-01-26T20:03:43.344Z,16.87
2023-01-26T20:06:18.295Z,12.37
2023-01-26T20:08:44.802Z,15.07
2023-01-26T20:11:11.591Z,14.10
2023-01-26T20:13:38.519Z,19.13
2023-01-26T20:16:08.938Z,11.80
2023-01-26T20:18:36.983Z,11.97
2023-01-26T20:21:04.955Z,14.70
2023-01-26T20:23:31.478Z,11.63
2023-01-26T20:26:06.680Z,13.00
2023-01-26T20:28:33.543Z,12.03
2023-01-26T20:31:08.424Z,15.03
2023-01-26T20:33:35.910Z,11.50
2023-01-26T20:36:06.549Z,9.47
2023-01-26T20:38:33.181Z,17.70
2023-01-26T20:40:59.728Z,15.70
2023-01-26T20:43:26.206Z,33.13
2023-01-26T20:45:53.077Z,21.03
2023-01-26T20:48:19.772Z,25.30
2023-01-26T20:50:46.266Z,33.40
2023-01-26T20:53:12.749Z,10.37
2023-01-26T20:55:39.313Z,9.67
2023-01-26T20:58:06.852Z,12.63
2023-01-26T21:00:33.653Z,14.87
2023-01-26T21:03:00.253Z,24.77
2023-01-26T21:05:26.932Z,13.50
2023-01-26T21:07:53.773Z,10.73
2023-01-26T21:10:20.347Z,11.80
2023-01-26T21:12:46.850Z,15.23
2023-01-26T21:15:13.348Z,17.20
2023-01-26T21:17:39.938Z,13.63
2023-01-26T21:20:08.319Z,10.30
2023-01-26T21:22:34.895Z,10.80
2023-01-26T21:25:01.430Z,10.30
2023-01-26T21:27:27.986Z,15.07
2023-01-26T21:29:54.534Z,11.33
2023-01-26T21:32:21.089Z,11.77
2023-01-26T21:34:47.639Z,12.50
2023-01-26T21:37:14.235Z,12.13
2023-01-26T21:39:40.709Z,11.90
2023-01-26T21:42:07.217Z,15.73
2023-01-26T21:44:53.846Z,13.40
2023-01-26T21:47:20.435Z,14.87
2023-01-26T21:49:47.738Z,13.60
2023-01-26T21:52:32.995Z,13.37
2023-01-26T21:54:59.698Z,11.10
2023-01-26T21:57:44.796Z,13.47
2023-01-26T22:02:38.401Z,12.10
2023-01-26T22:05:05.248Z,13.70
2023-01-26T22:07:32.226Z,16.37
2023-01-26T22:09:59.264Z,13.27
2023-01-26T22:12:26.133Z,10.80
2023-01-26T22:14:53.730Z,15.80
2023-01-26T22:17:20.415Z,13.73
2023-01-26T22:19:47.987Z,11.63
2023-01-26T22:22:14.848Z,11.60
2023-01-26T22:24:41.671Z,15.43
2023-01-26T22:27:08.732Z,11.87
2023-01-26T22:29:35.996Z,11.53
2023-01-26T22:32:03.774Z,12.63
2023-01-26T22:34:30.785Z,13.10
2023-01-26T22:36:57.970Z,11.47
2023-01-26T22:39:25.531Z,9.63
2023-01-26T22:41:52.353Z,12.70
2023-01-26T22:44:19.108Z,11.23
2023-01-26T22:46:46.179Z,9.93
2023-01-26T22:49:13.312Z,11.20
2023-01-26T22:51:41.539Z,11.10
2023-01-26T22:54:08.244Z,10.93
2023-01-26T22:56:35.944Z,12.53
2023-01-26T22:59:03.128Z,10.83
2023-01-26T23:01:32.514Z,10.83
2023-01-26T23:04:01.185Z,9.20
2023-01-26T23:06:29.493Z,11.20
2023-01-26T23:08:58.597Z,11.87
2023-01-26T23:11:27.574Z,11.67
2023-01-26T23:13:56.390Z,12.13
2023-01-26T23:16:24.228Z,9.10
2023-01-26T23:18:53.030Z,11.37
2023-01-26T23:21:20.119Z,12.77
2023-01-26T23:23:46.981Z,11.63
2023-01-26T23:26:14.004Z,9.77
2023-01-26T23:28:42.489Z,10.53
2023-01-26T23:31:10.444Z,13.60
2023-01-26T23:33:38.146Z,13.50
2023-01-26T23:36:06.142Z,12.03
2023-01-26T23:38:33.127Z,10.97
2023-01-26T23:41:02.961Z,10.20
2023-01-26T23:43:29.493Z,9.90
2023-01-26T23:45:56.858Z,11.77
2023-01-26T23:48:25.463Z,11.27
2023-01-26T23:51:00.084Z,10.93
2023-01-26T23:55:54.363Z,11.27
2023-01-26T23:58:20.968Z,11.50
